Time;durP1;ratioP1;P1;durP2;ratioP2;P2;SDS_P1;SDS_P2;PMS_P1;PMS_P2;Temp;Humidity;BMP_temperature;BMP_pressure;BME280_temperature;BME280_humidity;BME280_pressure;Samples;Min_cycle;Max_cycle;Signal;HPM_P1;HPM_P2
2022/06/27 00:00:52;;;;;;;9.73;7.47;;;;;;;17.37;82.66;101365.81;6219822;23;20058;-89
2022/06/27 00:03:29;;;;;;;13.63;8.03;;;;;;;17.38;82.46;101358.41;6245965;23;20008;-88
2022/06/27 00:05:54;;;;;;;11.00;7.20;;;;;;;17.36;82.42;101350.44;6246430;23;20071;-89
2022/06/27 00:08:20;;;;;;;10.35;7.50;;;;;;;17.39;82.78;101354.59;6246803;23;20039;-89
2022/06/27 00:10:48;;;;;;;9.87;8.00;;;;;;;17.37;82.51;101352.13;6219367;23;20009;-88
2022/06/27 00:13:14;;;;;;;10.68;7.28;;;;;;;17.39;82.80;101352.72;6246328;23;20011;-88
2022/06/27 00:15:39;;;;;;;10.37;7.50;;;;;;;17.39;82.91;101358.19;6219815;23;20008;-88
2022/06/27 00:18:05;;;;;;;10.20;7.17;;;;;;;17.41;84.47;101358.78;6246275;23;20031;-88
2022/06/27 00:20:33;;;;;;;12.02;7.68;;;;;;;17.41;83.67;101367.00;6219269;23;20007;-89
2022/06/27 00:23:15;;;;;;;12.82;7.20;;;;;;;17.41;84.07;101367.00;6221068;23;20388;-88
2022/06/27 00:25:40;;;;;;;13.13;7.43;;;;;;;17.38;84.28;101361.16;6200686;23;20303;-88
2022/06/27 00:28:06;;;;;;;10.40;6.63;;;;;;;17.39;84.63;101371.06;6221672;23;20015;-88
2022/06/27 00:30:31;;;;;;;10.70;7.20;;;;;;;17.38;85.44;101378.47;6220869;23;20079;-88
2022/06/27 00:32:57;;;;;;;10.60;7.77;;;;;;;17.39;84.59;101373.81;6221457;23;20008;-88
2022/06/27 00:35:25;;;;;;;13.30;7.47;;;;;;;17.39;84.22;101382.03;6220924;23;20012;-88
2022/06/27 00:37:58;;;;;;;11.98;8.07;;;;;;;17.36;84.69;101378.72;6196312;23;20040;-88
2022/06/27 00:40:29;;;;;;;10.75;7.93;;;;;;;17.35;84.40;101371.56;6221491;23;20007;-88
2022/06/27 00:42:59;;;;;;;11.93;7.72;;;;;;;17.39;84.61;101384.78;6248447;23;20399;-88
2022/06/27 00:45:30;;;;;;;11.23;7.53;;;;;;;17.37;84.05;101390.50;6220788;23;20032;-88
2022/06/27 00:47:58;;;;;;;13.77;7.63;;;;;;;17.37;84.70;101385.03;6221222;23;20420;-88
2022/06/27 00:50:26;;;;;;;9.57;7.53;;;;;;;17.37;84.46;101385.03;6220251;23;20070;-88
2022/06/27 00:52:54;;;;;;;9.85;6.88;;;;;;;17.40;84.58;101394.69;6220918;23;20012;-88
2022/06/27 00:55:23;;;;;;;10.45;7.13;;;;;;;17.39;84.67;101391.13;6195725;23;20008;-88
2022/06/27 00:57:51;;;;;;;11.50;7.20;;;;;;;17.43;84.96;101395.00;6197248;23;20009;-88
2022/06/27 01:00:25;;;;;;;11.30;7.53;;;;;;;17.40;84.87;101390.00;6220990;23;20004;-89
2022/06/27 01:02:51;;;;;;;10.77;7.22;;;;;;;17.42;85.29;101387.88;6221302;23;20008;-88
2022/06/27 01:05:19;;;;;;;10.00;6.83;;;;;;;17.41;85.41;101397.19;6195703;23;20015;-89
2022/06/27 01:07:48;;;;;;;9.88;7.22;;;;;;;17.41;84.90;101394.44;6221416;23;20019;-88
2022/06/27 01:10:13;;;;;;;11.90;7.97;;;;;;;17.41;85.02;101386.19;6221235;23;20012;-88
2022/06/27 01:12:40;;;;;;;13.57;7.60;;;;;;;17.37;84.56;101401.47;6220965;23;20303;-88
2022/06/27 01:15:10;;;;;;;11.43;7.70;;;;;;;17.36;84.56;101394.31;6220864;23;20453;-89
2022/06/27 01:17:36;;;;;;;11.15;7.57;;;;;;;17.39;84.57;101395.75;6220933;23;20000;-89
2022/06/27 01:20:05;;;;;;;11.60;8.00;;;;;;;17.35;84.62;101393.50;6220639;23;20035;-89
2022/06/27 01:22:41;;;;;;;15.82;8.00;;;;;;;17.40;84.01;101405.66;6220335;23;20082;-89
2022/06/27 01:25:08;;;;;;;11.25;7.88;;;;;;;17.35;84.29;101406.41;6197755;23;20096;-88
2022/06/27 01:27:42;;;;;;;12.37;8.07;;;;;;;17.39;84.23;101403.97;6221086;23;20000;-88
2022/06/27 01:30:17;;;;;;;11.90;8.00;;;;;;;17.37;84.54;101393.25;6221151;23;20012;-88
2022/06/27 01:32:46;;;;;;;12.50;8.32;;;;;;;17.38;84.66;101385.84;6220111;23;20078;-88
2022/06/27 01:35:17;;;;;;;11.73;8.00;;;;;;;17.39;84.62;101385.63;6220022;23;20403;-88
2022/06/27 01:37:45;;;;;;;14.10;7.72;;;;;;;17.35;84.71;101377.06;6220247;23;20012;-88
2022/06/27 01:40:19;;;;;;;10.70;8.23;;;;;;;17.36;84.40;101375.97;6220848;23;20314;-88
2022/06/27 01:42:49;;;;;;;14.63;8.35;;;;;;;17.39;84.10;101365.56;6221653;23;20051;-88
2022/06/27 01:45:18;;;;;;;11.98;8.32;;;;;;;17.32;84.66;101355.59;6220746;23;20000;-89
2022/06/27 01:47:43;;;;;;;9.70;7.38;;;;;;;17.33;84.63;101354.53;6247726;23;20012;-89
2022/06/27 01:50:15;;;;;;;14.27;7.57;;;;;;;17.31;84.52;101356.69;6220401;23;20036;-88
2022/06/27 01:52:41;;;;;;;12.60;7.90;;;;;;;17.31;84.82;101361.34;6247711;23;20012;-88
2022/06/27 01:55:08;;;;;;;13.00;7.80;;;;;;;17.30;84.61;101357.78;6221724;23;20394;-88
2022/06/27 01:57:34;;;;;;;11.25;7.32;;;;;;;17.33;84.82;101353.69;6200301;23;20008;-88
2022/06/27 02:00:02;;;;;;;10.82;8.10;;;;;;;17.30;84.64;101349.56;6251571;23;20083;-88
2022/06/27 02:02:33;;;;;;;13.95;7.60;;;;;;;17.28;85.42;101350.88;6223342;23;20414;-88
2022/06/27 02:05:03;;;;;;;15.17;7.87;;;;;;;17.27;84.92;101352.78;6222050;23;20303;-88
2022/06/27 02:07:34;;;;;;;12.27;7.30;;;;;;;17.29;84.72;101355.28;6220365;23;20004;-88
2022/06/27 02:10:08;;;;;;;11.82;7.38;;;;;;;17.27;84.27;101349.19;6247415;23;20103;-88
2022/06/27 02:12:37;;;;;;;12.52;7.78;;;;;;;17.27;84.44;101344.56;6220316;23;20004;-88
2022/06/27 02:15:03;;;;;;;13.52;7.82;;;;;;;17.27;84.57;101333.59;6247279;23;20008;-88
2022/06/27 02:17:28;;;;;;;13.23;7.30;;;;;;;17.26;84.72;101339.31;6219963;23;20418;-88
2022/06/27 02:20:04;;;;;;;10.43;7.38;;;;;;;17.28;84.46;101335.25;6219884;23;20004;-88
2022/06/27 02:22:29;;;;;;;13.73;7.70;;;;;;;17.28;84.64;101323.44;6220350;23;20012;-88
2022/06/27 02:24:58;;;;;;;11.02;7.78;;;;;;;17.26;84.51;101323.69;6246775;23;20477;-88
2022/06/27 02:27:24;;;;;;;11.52;7.57;;;;;;;17.28;84.72;101326.19;6195507;23;20090;-88
2022/06/27 02:29:49;;;;;;;14.00;7.30;;;;;;;17.28;84.93;101326.19;6220423;23;20042;-83
2022/06/27 02:32:15;;;;;;;8.90;6.77;;;;;;;17.25;85.99;101319.28;6195021;23;20319;-83
2022/06/27 02:34:42;;;;;;;10.50;7.17;;;;;;;17.26;86.44;101333.81;6220078;23;20239;-83
2022/06/27 02:37:09;;;;;;;12.18;7.63;;;;;;;17.25;86.38;101333.00;6246988;23;20046;-84
2022/06/27 02:39:38;;;;;;;10.73;7.32;;;;;;;17.22;87.04;101328.00;6246900;23;20000;-83
2022/06/27 02:42:07;;;;;;;11.07;8.07;;;;;;;17.24;86.25;101334.06;6220423;23;20296;-84
2022/06/27 02:44:33;;;;;;;10.48;7.55;;;;;;;17.22;86.14;101329.94;6220608;23;20086;-83
2022/06/27 02:46:59;;;;;;;13.65;8.00;;;;;;;17.21;86.27;101325.53;6220080;23;20000;-83
2022/06/27 02:49:25;;;;;;;12.10;8.38;;;;;;;17.18;86.14;101321.34;6220125;23;20047;-83
2022/06/27 02:52:02;;;;;;;13.27;8.77;;;;;;;17.18;86.28;101311.25;6194661;23;20351;-83
2022/06/27 02:54:42;;;;;;;13.20;8.57;;;;;;;17.14;85.96;101301.00;6220353;23;20012;-83
2022/06/27 02:57:10;;;;;;;11.45;7.90;;;;;;;17.10;86.24;101303.41;6246723;23;20004;-83
2022/06/27 02:59:38;;;;;;;13.73;8.40;;;;;;;17.07;86.04;101284.72;6246732;23;20411;-83
2022/06/27 03:02:08;;;;;;;9.88;7.25;;;;;;;17.03;86.91;101294.50;6246799;23;20417;-83
2022/06/27 03:04:33;;;;;;;10.93;7.83;;;;;;;17.00;87.21;101287.59;6246552;23;20117;-83
2022/06/27 03:06:58;;;;;;;11.20;7.97;;;;;;;16.94;88.00;101288.59;6195205;23;20004;-83
2022/06/27 03:09:24;;;;;;;12.37;8.07;;;;;;;16.89;88.36;101296.75;6220029;23;20046;-84
2022/06/27 03:11:49;;;;;;;14.80;8.43;;;;;;;16.79;88.10;101283.66;6194878;23;20533;-83
2022/06/27 03:14:15;;;;;;;14.57;8.80;;;;;;;16.74;87.92;101274.50;6194929;23;20011;-83
2022/06/27 03:16:40;;;;;;;10.90;7.63;;;;;;;16.69;88.30;101280.72;6219975;23;20016;-83
2022/06/27 03:19:06;;;;;;;12.80;8.07;;;;;;;16.62;88.99;101286.38;6194285;23;20096;-83
2022/06/27 03:21:31;;;;;;;13.50;8.23;;;;;;;16.56;89.34;101294.72;6246613;23;20031;-83
2022/06/27 03:23:57;;;;;;;11.90;8.63;;;;;;;16.49;89.76;101297.63;6245466;23;20004;-83
2022/06/27 03:26:22;;;;;;;40.20;9.47;;;;;;;16.42;90.09;101297.75;6194736;23;20015;-83
2022/06/27 03:28:48;;;;;;;10.17;8.13;;;;;;;16.34;91.26;101291.81;6219554;23;20079;-83
2022/06/27 03:31:14;;;;;;;12.73;8.73;;;;;;;16.28;91.79;101294.47;6195754;23;20437;-83
2022/06/27 03:33:39;;;;;;;11.63;9.02;;;;;;;16.21;92.77;101281.97;6220648;23;20012;-83
2022/06/27 03:36:05;;;;;;;16.00;8.57;;;;;;;16.16;93.00;101284.63;6219775;23;20005;-84
2022/06/27 03:38:30;;;;;;;12.60;8.32;;;;;;;16.11;93.40;101283.44;6194909;23;20320;-84
2022/06/27 03:40:57;;;;;;;15.37;8.73;;;;;;;16.07;93.53;101287.72;6219709;23;20004;-84
2022/06/27 03:43:23;;;;;;;12.98;9.07;;;;;;;16.05;93.43;101289.06;6169976;23;20008;-83
2022/06/27 03:45:48;;;;;;;16.17;9.80;;;;;;;16.02;94.14;101289.53;6194556;23;20023;-83
2022/06/27 03:50:00;;;;;;;14.67;9.27;;;;;;;15.99;94.85;101290.00;6246557;23;20005;-84
2022/06/27 03:50:59;;;;;;;13.75;9.45;;;;;;;15.94;95.02;101293.47;6223571;23;20059;-83
2022/06/27 03:53:24;;;;;;;16.53;10.37;;;;;;;15.91;95.20;101297.50;6245022;23;20012;-83
2022/06/27 03:55:50;;;;;;;15.07;10.37;;;;;;;15.88;95.90;101297.16;6221674;23;20050;-83
2022/06/27 03:58:15;;;;;;;15.23;10.50;;;;;;;15.87;96.07;101301.81;6221834;23;20009;-83
2022/06/27 04:00:41;;;;;;;20.07;10.60;;;;;;;15.89;97.30;101304.31;6248425;23;20005;-83
2022/06/27 04:03:06;;;;;;;14.50;10.03;;;;;;;15.92;98.01;101321.06;6222675;23;20012;-83
2022/06/27 04:05:32;;;;;;;15.25;10.18;;;;;;;16.03;97.74;101319.38;6221974;23;20012;-83
2022/06/27 04:07:57;;;;;;;15.10;10.70;;;;;;;16.16;97.10;101309.25;6221621;23;20048;-83
2022/06/27 04:10:23;;;;;;;13.90;9.97;;;;;;;16.25;96.24;101299.59;6222557;23;20035;-83
2022/06/27 04:12:48;;;;;;;18.73;11.10;;;;;;;16.34;95.11;101305.53;6221526;23;20315;-83
2022/06/27 04:15:14;;;;;;;14.83;10.33;;;;;;;16.41;94.58;101307.03;6196534;23;20008;-83
2022/06/27 04:17:39;;;;;;;15.63;11.00;;;;;;;16.49;94.54;101300.38;6196178;23;20083;-82
2022/06/27 04:20:05;;;;;;;18.73;10.67;;;;;;;16.58;94.81;101298.88;6197199;23;20091;-84
2022/06/27 04:22:31;;;;;;;16.75;11.23;;;;;;;16.66;93.72;101281.22;6248324;23;20480;-84
2022/06/27 04:24:58;;;;;;;14.97;9.90;;;;;;;16.73;92.72;101270.13;6221727;23;20008;-83
2022/06/27 04:27:23;;;;;;;18.38;10.90;;;;;;;16.77;93.08;101277.59;6196800;23;20374;-83
2022/06/27 04:29:49;;;;;;;15.07;10.93;;;;;;;16.81;92.94;101269.72;6221209;23;20012;-83
2022/06/27 04:32:18;;;;;;;19.37;10.87;;;;;;;16.88;92.61;101269.59;6248220;23;20418;-83
2022/06/27 04:34:44;;;;;;;20.80;12.23;;;;;;;16.90;92.31;101262.75;6248150;23;20239;-84
2022/06/27 04:37:10;;;;;;;18.63;12.68;;;;;;;16.87;91.92;101241.34;6196588;23;20008;-84
2022/06/27 04:39:35;;;;;;;21.50;11.85;;;;;;;16.88;92.30;101232.03;6247976;23;20004;-83
2022/06/27 04:42:01;;;;;;;21.77;13.17;;;;;;;16.91;92.21;101234.28;6221398;23;20082;-84
2022/06/27 04:44:27;;;;;;;19.27;12.17;;;;;;;16.95;91.78;101238.19;6247978;23;20012;-84
2022/06/27 04:46:52;;;;;;;25.73;13.02;;;;;;;16.97;92.19;101244.25;6220605;23;20012;-84
2022/06/27 04:49:19;;;;;;;22.93;12.83;;;;;;;17.04;91.88;101240.50;6220786;23;20016;-84
2022/06/27 04:51:49;;;;;;;17.15;12.18;;;;;;;17.09;91.82;101246.91;6221517;23;20016;-84
2022/06/27 04:54:17;;;;;;;23.30;12.57;;;;;;;17.13;91.09;101248.06;6220926;23;20020;-84
2022/06/27 04:56:44;;;;;;;22.63;12.48;;;;;;;17.17;90.76;101264.88;6221576;23;20439;-84
2022/06/27 04:59:11;;;;;;;21.13;11.47;;;;;;;17.20;90.91;101261.63;6195784;23;20012;-84
2022/06/27 05:01:37;;;;;;;22.67;12.38;;;;;;;17.21;91.59;101252.31;6221035;23;20012;-83
2022/06/27 05:04:03;;;;;;;25.75;12.80;;;;;;;17.18;91.05;101253.66;6247753;23;20419;-84
2022/06/27 05:06:29;;;;;;;17.88;11.68;;;;;;;17.24;90.50;101246.31;6195721;23;20008;-83
2022/06/27 05:08:54;;;;;;;27.97;12.80;;;;;;;17.23;90.56;101244.69;6195946;23;20019;-84
2022/06/27 05:11:20;;;;;;;24.77;12.48;;;;;;;17.24;90.23;101235.34;6195942;23;20020;-84
2022/06/27 05:13:45;;;;;;;19.43;12.43;;;;;;;17.28;90.13;101224.72;6220457;23;20334;-83
2022/06/27 05:16:11;;;;;;;22.17;13.17;;;;;;;17.27;90.07;101231.28;6196188;23;20062;-84
2022/06/27 05:18:36;;;;;;;23.58;12.68;;;;;;;17.27;90.29;101236.78;6220931;23;20027;-84
2022/06/27 05:21:01;;;;;;;20.60;12.77;;;;;;;17.28;90.73;101242.00;6195818;23;20016;-84
2022/06/27 05:23:27;;;;;;;21.73;14.00;;;;;;;17.33;90.60;101257.69;6196484;23;20016;-83
2022/06/27 05:25:52;;;;;;;18.37;13.17;;;;;;;17.34;90.66;101262.09;6220804;23;20046;-84
2022/06/27 05:28:18;;;;;;;19.50;13.53;;;;;;;17.33;90.65;101250.31;6196370;23;20008;-83
2022/06/27 05:30:43;;;;;;;22.10;13.45;;;;;;;17.36;90.46;101246.22;6220876;23;20342;-80
2022/06/27 05:33:09;;;;;;;25.53;13.90;;;;;;;17.39;90.21;101259.47;6196059;23;20079;-81
2022/06/27 05:35:34;;;;;;;22.97;13.47;;;;;;;17.47;90.89;101293.84;6220160;23;20435;-81
2022/06/27 05:38:00;;;;;;;25.00;14.90;;;;;;;17.47;90.11;101315.81;6195983;23;20019;-81
2022/06/27 05:40:26;;;;;;;21.30;13.80;;;;;;;17.47;89.97;101330.34;6247374;23;20062;-81
2022/06/27 05:42:53;;;;;;;20.58;14.15;;;;;;;17.51;89.75;101342.47;6247436;23;20000;-81
2022/06/27 05:45:18;;;;;;;22.93;13.57;;;;;;;17.46;89.18;101350.63;6221238;23;20008;-80
2022/06/27 05:47:44;;;;;;;19.50;13.65;;;;;;;17.48;89.34;101351.22;6220166;23;20115;-81
2022/06/27 05:50:10;;;;;;;24.13;14.47;;;;;;;17.50;88.84;101370.97;6247609;23;20012;-82
2022/06/27 05:52:39;;;;;;;25.42;15.93;;;;;;;17.52;88.83;101374.34;6221316;23;20008;-81
2022/06/27 05:55:05;;;;;;;21.03;14.93;;;;;;;17.52;89.13;101384.44;6247651;23;20434;-81
2022/06/27 05:57:31;;;;;;;23.05;15.52;;;;;;;17.49;89.00;101377.56;6220642;23;20016;-81
2022/06/27 05:59:58;;;;;;;21.48;14.07;;;;;;;17.53;89.04;101378.72;6247123;23;20421;-81
2022/06/27 06:02:25;;;;;;;24.70;13.97;;;;;;;17.54;89.24;101374.06;6220343;23;20015;-81
2022/06/27 06:04:51;;;;;;;24.50;15.38;;;;;;;17.60;88.75;101364.00;6220208;23;20012;-81
2022/06/27 06:07:16;;;;;;;19.83;14.52;;;;;;;17.67;89.45;101354.53;6247034;23;20035;-81
2022/06/27 06:09:43;;;;;;;17.97;14.30;;;;;;;17.78;88.87;101339.03;6221162;23;20019;-81
2022/06/27 06:12:11;;;;;;;19.25;15.05;;;;;;;17.85;88.56;101341.63;6220135;23;20096;-81
2022/06/27 06:14:40;;;;;;;22.60;15.32;;;;;;;17.90;87.54;101349.13;6246750;23;20070;-81
2022/06/27 06:17:05;;;;;;;24.38;15.20;;;;;;;17.94;87.62;101353.84;6219958;23;20091;-81
2022/06/27 06:19:31;;;;;;;21.20;14.83;;;;;;;17.96;87.52;101351.69;6220077;23;20031;-81
2022/06/27 06:21:57;;;;;;;26.52;15.95;;;;;;;17.98;86.11;101363.25;6219407;23;20526;-81
2022/06/27 06:24:24;;;;;;;24.77;15.98;;;;;;;17.97;87.14;101379.97;6219739;23;20114;-81
2022/06/27 06:26:52;;;;;;;21.10;15.67;;;;;;;17.86;86.61;101399.00;6220189;23;20018;-82
2022/06/27 06:29:18;;;;;;;25.27;16.02;;;;;;;17.83;87.88;101398.66;6195618;23;20438;-81
2022/06/27 06:31:45;;;;;;;21.45;15.38;;;;;;;17.81;87.78;101392.59;6246934;23;20083;-81
2022/06/27 06:34:12;;;;;;;22.17;15.55;;;;;;;17.78;87.45;101382.13;6219741;23;20089;-81
2022/06/27 06:36:38;;;;;;;22.77;14.88;;;;;;;17.83;87.59;101387.69;6220000;23;20004;-81
2022/06/27 06:39:06;;;;;;;21.40;15.33;;;;;;;17.75;87.07;101375.22;6246235;23;20004;-81
2022/06/27 06:41:32;;;;;;;22.30;15.40;;;;;;;17.77;87.46;101362.06;6219455;23;20086;-81
2022/06/27 06:43:59;;;;;;;22.42;15.25;;;;;;;17.86;87.00;101346.88;6219829;23;20011;-81
2022/06/27 06:46:28;;;;;;;22.98;15.45;;;;;;;17.96;87.33;101323.41;6195447;23;20308;-82
2022/06/27 06:49:02;;;;;;;22.02;14.30;;;;;;;18.12;86.69;101316.22;6194940;23;20015;-81
2022/06/27 06:51:31;;;;;;;21.47;15.20;;;;;;;18.28;85.82;101314.47;6197426;23;20035;-81
2022/06/27 06:53:56;;;;;;;24.45;14.55;;;;;;;18.49;85.38;101326.56;6246422;23;20035;-81
2022/06/27 06:56:22;;;;;;;24.75;14.85;;;;;;;18.62;83.78;101309.66;6219519;23;20017;-81
2022/06/27 06:58:47;;;;;;;22.57;15.73;;;;;;;18.80;83.29;101302.97;6194706;23;20008;-81
2022/06/27 07:01:13;;;;;;;23.90;15.60;;;;;;;19.04;82.82;101327.44;6219763;23;20467;-80
2022/06/27 07:03:38;;;;;;;23.93;15.53;;;;;;;19.13;81.43;101325.03;6246608;23;20027;-80
2022/06/27 07:06:05;;;;;;;22.85;15.48;;;;;;;19.14;80.96;101323.94;6219714;23;20054;-80
2022/06/27 07:08:30;;;;;;;23.63;15.67;;;;;;;19.34;79.82;101324.13;6194632;23;20323;-84
2022/06/27 07:10:57;;;;;;;20.77;15.15;;;;;;;19.42;79.18;101312.63;6219442;23;20058;-83
2022/06/27 07:13:24;;;;;;;27.77;15.73;;;;;;;19.54;79.21;101301.41;6195402;23;20009;-83
2022/06/27 07:15:50;;;;;;;23.80;15.63;;;;;;;19.52;78.32;101311.06;6246837;23;20418;-83
2022/06/27 07:18:17;;;;;;;27.88;16.02;;;;;;;19.50;79.11;101326.97;6246365;23;20008;-83
2022/06/27 07:20:43;;;;;;;24.92;15.38;;;;;;;19.56;79.09;101329.53;6220212;23;20094;-83
2022/06/27 07:23:09;;;;;;;22.10;15.60;;;;;;;19.92;78.31;101334.47;6219976;23;20015;-84
2022/06/27 07:25:36;;;;;;;21.10;15.20;;;;;;;20.17;77.64;101358.56;6246540;23;20004;-83
2022/06/27 07:28:02;;;;;;;21.55;14.95;;;;;;;20.33;76.38;101364.97;6195497;23;20008;-83
2022/06/27 07:30:28;;;;;;;24.15;15.38;;;;;;;20.47;76.52;101362.53;6219332;23;20004;-83
2022/06/27 07:32:54;;;;;;;17.30;13.32;;;;;;;20.82;75.68;101341.75;6220590;23;20011;-83
2022/06/27 07:35:20;;;;;;;16.97;13.00;;;;;;;21.02;73.16;101352.81;6219710;23;20012;-83
2022/06/27 07:37:51;;;;;;;17.73;12.68;;;;;;;20.95;72.11;101354.16;6219432;23;20012;-83
2022/06/27 07:40:22;;;;;;;17.08;13.20;;;;;;;21.09;72.96;101351.72;6219913;23;20016;-83
2022/06/27 07:42:50;;;;;;;16.63;11.30;;;;;;;21.29;71.25;101360.00;6219824;23;20035;-83
2022/06/27 07:45:15;;;;;;;15.82;11.65;;;;;;;21.23;71.16;101361.09;6246445;23;20007;-83
2022/06/27 07:47:44;;;;;;;17.23;11.30;;;;;;;21.27;71.35;101361.38;6194531;23;20489;-83
2022/06/27 07:50:11;;;;;;;17.95;11.15;;;;;;;21.24;70.76;101361.94;6246556;23;20022;-83
2022/06/27 07:55:23;;;;;;;10.97;8.47;;;;;;;20.87;69.13;101369.31;6223946;23;20078;-83
2022/06/27 07:57:52;;;;;;;15.55;8.45;;;;;;;20.82;68.53;101377.59;6246405;23;20008;-83
2022/06/27 08:00:18;;;;;;;13.68;8.40;;;;;;;20.86;67.13;101375.94;6219055;23;20004;-83
2022/06/27 08:02:44;;;;;;;10.30;8.32;;;;;;;;;;6219552;23;20333;-83
2022/06/27 08:05:10;;;;;;;10.63;8.30;;;;;;;20.86;67.99;101386.97;6245875;23;20069;-83
2022/06/27 08:07:36;;;;;;;10.30;8.07;;;;;;;20.90;67.81;101382.56;6194373;23;20008;-83
2022/06/27 08:10:04;;;;;;;14.53;8.13;;;;;;;21.15;67.53;101387.28;6219770;23;20452;-83
2022/06/27 08:12:32;;;;;;;13.65;8.32;;;;;;;21.48;66.99;101390.66;6219663;23;20005;-83
2022/06/27 08:14:59;;;;;;;12.75;8.20;;;;;;;21.44;65.74;101391.47;6246219;23;20011;-83
2022/06/27 08:17:24;;;;;;;11.98;8.35;;;;;;;21.36;66.08;101384.56;6219981;23;20008;-83
2022/06/27 08:19:50;;;;;;;11.10;7.40;;;;;;;21.20;65.19;101372.69;6219408;23;20331;-83
2022/06/27 08:22:16;;;;;;;12.65;8.00;;;;;;;21.08;66.23;101383.16;6219991;23;20026;-85
2022/06/27 08:24:42;;;;;;;11.23;7.67;;;;;;;20.91;66.67;101381.47;6194188;23;20023;-84
2022/06/27 08:27:08;;;;;;;10.50;7.53;;;;;;;20.82;67.33;101389.44;6194481;23;20012;-83
2022/06/27 08:29:34;;;;;;;11.80;8.27;;;;;;;20.70;68.56;101410.06;6194374;23;20016;-84
2022/06/27 08:32:00;;;;;;;11.90;7.95;;;;;;;20.63;68.60;101416.63;6220320;23;20023;-84
2022/06/27 08:34:26;;;;;;;13.68;8.75;;;;;;;20.65;68.02;101419.13;6194205;23;20331;-83
2022/06/27 08:36:51;;;;;;;16.27;8.20;;;;;;;20.71;68.76;101414.50;6245971;23;20103;-85
2022/06/27 08:39:18;;;;;;;17.40;8.25;;;;;;;20.72;68.17;101411.47;6219312;23;20431;-84
2022/06/27 08:41:45;;;;;;;14.93;8.47;;;;;;;20.70;68.67;101408.16;6219518;23;20004;-83
2022/06/27 08:44:12;;;;;;;16.58;8.75;;;;;;;20.72;68.64;101410.63;6221923;23;20383;-84
2022/06/27 08:46:38;;;;;;;11.18;8.55;;;;;;;20.79;68.24;101413.97;6221351;23;20027;-84
2022/06/27 08:49:05;;;;;;;12.88;9.05;;;;;;;20.82;68.44;101410.69;6220942;23;20008;-84
2022/06/27 08:51:32;;;;;;;11.38;8.32;;;;;;;20.85;68.87;101413.72;6196293;23;20020;-85
2022/06/27 08:53:58;;;;;;;10.80;8.80;;;;;;;20.88;67.72;101415.09;6220941;23;20019;-84
2022/06/27 08:56:24;;;;;;;14.15;9.40;;;;;;;20.92;67.23;101415.38;6196077;23;20315;-84
2022/06/27 08:58:55;;;;;;;13.93;9.05;;;;;;;21.00;67.61;101406.59;6221347;23;20087;-84
2022/06/27 09:01:23;;;;;;;14.15;8.75;;;;;;;21.19;67.59;101412.41;6221283;23;20012;-84
2022/06/27 09:04:04;;;;;;;15.37;9.50;;;;;;;21.50;67.69;101429.03;6221249;23;20434;-84
2022/06/27 09:06:33;;;;;;;13.60;8.93;;;;;;;21.75;64.85;101447.56;6221129;23;20040;-84
2022/06/27 09:09:08;;;;;;;11.90;9.25;;;;;;;22.08;63.85;101432.31;6220407;23;20429;-84
2022/06/27 09:11:37;;;;;;;12.40;9.85;;;;;;;22.23;63.32;101434.25;6220464;23;20004;-83
2022/06/27 09:14:05;;;;;;;16.70;9.23;;;;;;;22.48;63.10;101435.28;6220578;23;20004;-84
2022/06/27 09:16:32;;;;;;;11.87;8.57;;;;;;;22.82;62.19;101422.72;6196284;23;20012;-84
2022/06/27 09:18:58;;;;;;;11.60;9.43;;;;;;;23.08;60.18;101413.16;6220473;23;20024;-84
2022/06/27 09:21:25;;;;;;;11.52;8.68;;;;;;;23.33;59.82;101408.59;6220272;23;20056;-84
2022/06/27 09:23:58;;;;;;;11.35;8.57;;;;;;;23.66;59.48;101411.66;6220464;23;20484;-84
2022/06/27 09:26:29;;;;;;;10.95;7.78;;;;;;;23.71;57.32;101419.94;6220613;23;20007;-84
2022/06/27 09:29:03;;;;;;;10.60;8.27;;;;;;;23.56;57.83;101426.44;6221189;23;20345;-83
2022/06/27 09:31:42;;;;;;;12.32;8.27;;;;;;;23.42;57.61;101428.19;6220348;23;20008;-84
2022/06/27 09:34:14;;;;;;;11.75;7.07;;;;;;;23.62;56.30;101432.72;6220733;23;20015;-84
2022/06/27 09:36:49;;;;;;;10.02;6.45;;;;;;;23.84;57.14;101418.41;6247224;23;20410;-84
2022/06/27 09:39:34;;;;;;;10.50;6.78;;;;;;;24.41;57.24;101418.69;6220544;23;20505;-84
2022/06/27 09:42:04;;;;;;;8.50;6.70;;;;;;;24.81;53.20;101421.28;6220282;23;20056;-84
2022/06/27 09:44:38;;;;;;;8.23;6.55;;;;;;;25.02;53.55;101416.25;6246694;23;20065;-83
2022/06/27 09:47:11;;;;;;;10.10;6.70;;;;;;;25.35;52.38;101417.19;6220194;23;20307;-84
2022/06/27 09:49:41;;;;;;;9.35;6.30;;;;;;;25.61;51.46;101424.28;6220177;23;20016;-84
2022/06/27 09:52:21;;;;;;;10.07;6.75;;;;;;;25.82;51.40;101414.47;6219754;23;20082;-84
2022/06/27 09:54:48;;;;;;;11.93;6.80;;;;;;;25.62;49.02;101415.63;6220638;23;20000;-85
2022/06/27 09:57:16;;;;;;;11.50;6.13;;;;;;;25.71;49.95;101415.75;6220003;23;20027;-84
2022/06/27 09:59:44;;;;;;;7.85;5.43;;;;;;;25.59;48.09;101416.25;6220003;23;20008;-84
2022/06/27 10:02:09;;;;;;;8.82;5.63;;;;;;;25.50;48.45;101413.31;6246941;23;20008;-84
2022/06/27 10:04:37;;;;;;;8.87;5.10;;;;;;;25.58;48.68;101406.25;6219700;23;20441;-84
2022/06/27 10:07:08;;;;;;;6.10;4.05;;;;;;;25.78;47.51;101399.53;6220051;23;20419;-84
2022/06/27 10:09:36;;;;;;;8.27;3.92;;;;;;;26.08;46.74;101400.09;6220277;23;20000;-84
2022/06/27 10:12:21;;;;;;;9.63;4.03;;;;;;;26.37;48.09;101397.03;6220193;23;20012;-84
2022/06/27 10:15:09;;;;;;;9.18;4.65;;;;;;;26.76;47.71;101403.19;6219537;23;20364;-84
2022/06/27 10:17:41;;;;;;;12.93;4.90;;;;;;;26.84;44.75;101396.06;6219141;23;20011;-84
2022/06/27 10:20:12;;;;;;;9.27;5.70;;;;;;;26.77;44.72;101390.94;6219769;23;20031;-84
2022/06/27 10:22:41;;;;;;;7.97;5.00;;;;;;;26.99;44.54;101394.91;6246803;23;20023;-83
2022/06/27 10:25:25;;;;;;;9.88;4.90;;;;;;;27.33;46.37;101387.97;6170615;23;20370;-83
2022/06/27 10:28:14;;;;;;;7.05;4.50;;;;;;;27.48;45.99;101390.41;6219639;23;20004;-84
2022/06/27 10:30:56;;;;;;;12.63;4.80;;;;;;;27.39;45.62;101390.34;6219180;23;20494;-83
2022/06/27 10:33:21;;;;;;;8.85;5.07;;;;;;;26.96;44.25;101397.19;6219847;23;20440;-83
2022/06/27 10:38:53;;;;;;;9.07;5.13;;;;;;;26.29;44.75;101388.59;6232682;23;20012;-84
2022/06/27 10:41:18;;;;;;;7.72;4.90;;;;;;;26.11;46.10;101401.47;6194576;23;20011;-84
2022/06/27 10:43:46;;;;;;;10.17;5.07;;;;;;;25.89;46.29;101400.16;6219325;23;20008;-84
2022/06/27 10:46:13;;;;;;;10.50;5.30;;;;;;;25.60;47.22;101408.72;6246756;23;20003;-84
2022/06/27 10:48:45;;;;;;;8.23;4.40;;;;;;;25.38;48.45;101399.09;6219775;23;20008;-84
2022/06/27 10:51:30;;;;;;;8.37;4.47;;;;;;;25.29;49.22;101406.41;6220544;23;20016;-84
2022/06/27 10:53:58;;;;;;;8.75;4.47;;;;;;;25.05;48.34;101410.09;6219637;23;20433;-85
2022/06/27 10:56:36;;;;;;;6.80;3.97;;;;;;;24.94;49.95;101401.09;6219883;23;20012;-84
2022/06/27 10:59:13;;;;;;;5.95;3.33;;;;;;;24.85;48.06;101406.50;6219724;23;20008;-84
2022/06/27 11:01:42;;;;;;;8.55;3.70;;;;;;;24.98;48.16;101409.66;6246623;23;20000;-84
2022/06/27 11:04:07;;;;;;;7.37;3.40;;;;;;;25.15;48.29;101406.34;6219158;23;20035;-84
2022/06/27 11:06:32;;;;;;;4.73;3.70;;;;;;;25.33;47.67;101404.72;6219757;23;20011;-85
2022/06/27 11:08:58;;;;;;;8.70;3.77;;;;;;;25.58;46.14;101409.03;6219681;23;20663;-84
2022/06/27 11:11:30;;;;;;;6.90;2.80;;;;;;;25.62;45.89;101409.25;6194598;23;20012;-84
2022/06/27 11:14:00;;;;;;;6.22;2.80;;;;;;;25.64;45.12;101405.03;6247017;23;20086;-84
2022/06/27 11:16:33;;;;;;;6.72;3.20;;;;;;;24.94;45.83;101406.66;6219897;23;20004;-84
2022/06/27 11:21:51;;;;;;;5.65;3.10;;;;;;;24.45;47.08;101416.16;6246858;23;20082;-84
2022/06/27 11:24:17;;;;;;;7.40;3.45;;;;;;;24.09;48.06;101417.34;6247355;23;20007;-84
2022/06/27 11:26:49;;;;;;;6.03;3.50;;;;;;;23.99;49.02;101426.63;6246287;23;20004;-84
2022/06/27 11:32:12;;;;;;;8.52;5.35;;;;;;;23.43;51.11;101419.59;6246538;23;20075;-84